Change the Weather History Date:

Friday, February 8, 2013

  Actual Average (KARR) Record (KARR)
Temperature  
Mean Temperature 21 °F 23 °F  
Max Temperature 23 °F 31 °F 48 °F (2001)
Min Temperature 19 °F 14 °F -16 °F (2007)
Degree Days  
Heating Degree Days 44 42  
Month to date heating degree days 345  
Since 1 July heating degree days 4362  
Cooling Degree Days 0 0  
Month to date cooling degree days 0  
Year to date cooling degree days 0  
Moisture  
Dew Point 18 °F    
Average Humidity 88    
Maximum Humidity 91    
Minimum Humidity 84    
Precipitation  
Precipitation 0.03 in 0.05 in 0.70 in (2001)
Month to date precipitation 0.34  
Year to date precipitation 1.81  
Sea Level Pressure  
Sea Level Pressure 30.26 in    
Wind  
Wind Speed 13 mph (NNW)    
Max Wind Speed 20 mph    
Max Gust Speed 25 mph    
Visibility 10 miles    
Events Snow    
T = Trace of Precipitation, MM = Missing Value Source: NWS Daily Summary

Daily Weather History Graph

Daily Weather History Graph

Search for Another Location

Airport or City:

Trip Planner

Search our weather history database for the weather conditions in past years. The results will help you decide how hot, cold, wet, or windy it might be!

Date:

Astronomy

Feb. 08, 2013 Rise Set
Actual Time 6:59 AM CST 5:19 PM CST
Civil Twilight 6:30 AM CST 5:48 PM CST
Nautical Twilight 5:57 AM CST 6:21 PM CST
Astronomical Twilight 5:24 AM CST 6:53 PM CST
Moon 5:28 AM CST (2/8) 3:52 PM CST (2/8)
Length of Visible Light 11h 18m
Length of Day
10h 19m
Waning Crescent, 3% of the Moon is Illuminated
Feb 8
Waning Crescent
Feb 10
New
Feb 17
First Quarter
Feb 25
Full
Mar 4
Last Quarter

Hourly Weather History & Observations

Time (CST) Temp. Windchill Dew Point Humidity Pressure Visibility Wind Dir Wind Speed Gust Speed Precip Events Conditions
12:15 AM 23.9 °F 10.8 °F 21.7 °F 91% 29.99 in 5.0 mi NNW 16.1 mph 21.9 mph N/A Snow Light Snow
12:35 AM 22.8 °F 8.1 °F 20.3 °F 90% 29.99 in 2.5 mi NNW 19.6 mph 24.2 mph N/A Snow Light Snow
1:35 AM 21.2 °F 7.3 °F 18.5 °F 89% 30.02 in 10.0 mi NNW 16.1 mph - N/A   Clear
1:55 AM 21.2 °F 7.8 °F 18.5 °F 89% 30.04 in 10.0 mi NNW 15.0 mph 20.7 mph N/A   Clear
2:15 AM 20.5 °F 6.4 °F 17.6 °F 89% 30.04 in 7.0 mi NNW 16.1 mph 23.0 mph N/A   Clear
2:35 AM 20.3 °F 6.1 °F 17.4 °F 89% 30.06 in 10.0 mi NNW 16.1 mph 23.0 mph N/A   Clear
2:55 AM 20.1 °F 5.9 °F 17.2 °F 89% 30.06 in 7.0 mi NNW 16.1 mph 24.2 mph N/A   Clear
3:15 AM 19.4 °F 3.6 °F 15.8 °F 86% 30.07 in 10.0 mi NNW 19.6 mph 24.2 mph N/A   Clear
3:35 AM 19.2 °F 3.8 °F 16.2 °F 88% 30.08 in 10.0 mi NNW 18.4 mph 21.9 mph N/A   Clear
3:55 AM 19.2 °F 3.8 °F 16.0 °F 87% 30.09 in 10.0 mi NNW 18.4 mph 24.2 mph N/A   Clear
4:15 AM 19.2 °F 4.3 °F 15.8 °F 87% 30.10 in 10.0 mi NNW 17.3 mph 24.2 mph N/A   Clear
4:35 AM 19.2 °F 3.8 °F 15.8 °F 87% 30.11 in 10.0 mi North 18.4 mph 24.2 mph N/A   Scattered Clouds
4:55 AM 19.8 °F 4.1 °F 16.7 °F 88% 30.11 in 10.0 mi North 19.6 mph 25.3 mph N/A   Overcast
5:15 AM 20.3 °F 5.7 °F 17.4 °F 89% 30.13 in 10.0 mi North 17.3 mph 25.3 mph N/A   Overcast
5:35 AM 21.2 °F 6.8 °F 18.1 °F 88% 30.14 in 10.0 mi NNW 17.3 mph 24.2 mph N/A   Overcast
5:55 AM 21.2 °F 7.3 °F 18.3 °F 89% 30.16 in 10.0 mi NNW 16.1 mph 21.9 mph N/A   Overcast
6:15 AM 21.6 °F 6.9 °F 18.5 °F 88% 30.16 in 10.0 mi NNW 18.4 mph 24.2 mph N/A   Overcast
6:35 AM 21.7 °F 8.0 °F 18.5 °F 87% 30.17 in 10.0 mi NNW 16.1 mph 24.2 mph N/A   Overcast
6:55 AM 21.7 °F 8.5 °F 18.5 °F 87% 30.19 in 10.0 mi NNW 15.0 mph 20.7 mph N/A   Overcast
7:15 AM 21.7 °F 9.0 °F 18.5 °F 87% 30.20 in 10.0 mi NNW 13.8 mph 18.4 mph N/A   Overcast
7:35 AM 21.7 °F 9.0 °F 18.5 °F 87% 30.22 in 10.0 mi NNW 13.8 mph 19.6 mph N/A   Overcast
7:55 AM 21.7 °F 9.0 °F 18.5 °F 87% 30.23 in 10.0 mi North 13.8 mph 18.4 mph N/A   Overcast
8:15 AM 21.7 °F 9.0 °F 18.5 °F 87% 30.24 in 10.0 mi North 13.8 mph 19.6 mph N/A   Overcast
8:35 AM 21.9 °F 8.7 °F 18.5 °F 87% 30.25 in 10.0 mi North 15.0 mph - N/A   Overcast
8:55 AM 21.9 °F 9.8 °F 18.5 °F 87% 30.27 in 10.0 mi North 12.7 mph - N/A   Overcast
9:15 AM 22.1 °F 10.0 °F 18.7 °F 87% 30.27 in 10.0 mi NNW 12.7 mph 16.1 mph N/A   Overcast
9:35 AM 22.3 °F 10.8 °F 18.9 °F 87% 30.27 in 10.0 mi NNW 11.5 mph - N/A   Overcast
9:55 AM 22.6 °F 10.7 °F 19.0 °F 86% 30.27 in 10.0 mi NNW 12.7 mph 18.4 mph N/A   Overcast
10:15 AM 22.6 °F 11.3 °F 19.0 °F 86% 30.29 in 10.0 mi NW 11.5 mph - N/A   Overcast
10:35 AM 22.3 °F 10.8 °F 18.5 °F 85% 30.31 in 10.0 mi NW 11.5 mph 18.4 mph N/A   Overcast
10:55 AM 22.5 °F 11.7 °F 18.5 °F 85% 30.30 in 10.0 mi NW 10.4 mph 17.3 mph N/A   Overcast
11:15 AM 22.1 °F 10.0 °F 18.0 °F 84% 30.31 in 10.0 mi NW 12.7 mph 17.3 mph N/A   Overcast
11:35 AM 22.1 °F 9.5 °F 18.1 °F 85% 30.30 in 10.0 mi NW 13.8 mph 20.7 mph N/A   Overcast
11:55 AM 22.1 °F 8.9 °F 18.5 °F 86% 30.30 in 10.0 mi NNW 15.0 mph - N/A   Overcast
12:15 PM 22.1 °F 10.6 °F 18.1 °F 85% 30.30 in 10.0 mi NW 11.5 mph 17.3 mph N/A   Overcast
12:35 PM 22.1 °F 9.5 °F 18.3 °F 85% 30.30 in 10.0 mi NNW 13.8 mph 19.6 mph N/A   Overcast
12:55 PM 22.1 °F 11.3 °F 18.3 °F 85% 30.31 in 10.0 mi NW 10.4 mph - N/A   Overcast
1:15 PM 22.1 °F 12.0 °F 18.3 °F 85% 30.31 in 10.0 mi NW 9.2 mph - N/A   Overcast
1:35 PM 22.5 °F 13.2 °F 18.5 °F 85% 30.31 in 10.0 mi NNW 8.1 mph - N/A   Overcast
1:55 PM 21.7 °F 11.5 °F 17.8 °F 85% 30.31 in 10.0 mi NW 9.2 mph - N/A   Overcast
2:15 PM 21.7 °F 12.3 °F 18.1 °F 86% 30.31 in 10.0 mi NW 8.1 mph - N/A   Overcast
2:35 PM 22.1 °F 11.3 °F 18.3 °F 85% 30.31 in 10.0 mi NW 10.4 mph - N/A   Overcast
2:55 PM 22.1 °F 12.8 °F 18.5 °F 86% 30.32 in 10.0 mi NNW 8.1 mph - N/A   Overcast
3:15 PM 22.1 °F 13.7 °F 18.5 °F 86% 30.32 in 10.0 mi NNW 6.9 mph - N/A   Overcast
3:35 PM 22.1 °F 11.3 °F 18.5 °F 86% 30.33 in 10.0 mi NNW 10.4 mph - N/A   Overcast
3:55 PM 21.4 °F 12.8 °F 18.1 °F 87% 30.33 in 10.0 mi NW 6.9 mph - N/A   Overcast
4:15 PM 21.2 °F 10.9 °F 17.8 °F 87% 30.34 in 10.0 mi NNW 9.2 mph - N/A   Overcast
4:35 PM 20.8 °F 10.4 °F 17.6 °F 87% 30.34 in 10.0 mi NNW 9.2 mph - N/A   Overcast
4:55 PM 20.3 °F 11.5 °F 17.4 °F 89% 30.34 in 10.0 mi NNW 6.9 mph - N/A   Overcast
5:15 PM 20.1 °F 12.3 °F 17.2 °F 89% 30.35 in 10.0 mi NW 5.8 mph - N/A   Overcast
5:35 PM 20.1 °F 13.6 °F 17.2 °F 89% 30.36 in 10.0 mi NNW 4.6 mph - N/A   Overcast
5:55 PM 19.6 °F 11.7 °F 16.7 °F 89% 30.35 in 10.0 mi North 5.8 mph - N/A   Overcast
6:15 PM 19.6 °F 11.7 °F 16.7 °F 89% 30.36 in 10.0 mi NNW 5.8 mph - N/A   Overcast
6:35 PM 19.8 °F 10.8 °F 16.7 °F 88% 30.35 in 10.0 mi NE 6.9 mph - N/A   Overcast
6:55 PM 19.2 °F 11.3 °F 16.2 °F 88% 30.35 in 10.0 mi North 5.8 mph - N/A   Overcast
7:15 PM 19.2 °F - 16.5 °F 89% 30.36 in 10.0 mi Calm Calm - N/A   Overcast
7:35 PM 19.2 °F - 16.7 °F 90% 30.36 in 10.0 mi Calm Calm - N/A   Overcast
7:55 PM 19.4 °F - 16.7 °F 89% 30.36 in 10.0 mi Calm Calm - N/A   Overcast
8:15 PM 19.4 °F 14.3 °F 16.7 °F 89% 30.36 in 10.0 mi North 3.5 mph - N/A   Overcast
8:35 PM 19.9 °F 14.9 °F 17.4 °F 90% 30.36 in 10.0 mi North 3.5 mph - N/A   Overcast
8:55 PM 20.1 °F - 17.6 °F 90% 30.37 in 10.0 mi Calm Calm - N/A   Overcast
9:15 PM 20.1 °F - 17.6 °F 90% 30.37 in 10.0 mi Calm Calm - N/A   Overcast
9:35 PM 20.3 °F 13.8 °F 17.6 °F 89% 30.37 in 10.0 mi North 4.6 mph - N/A   Overcast
9:55 PM 20.3 °F 15.4 °F 17.6 °F 89% 30.37 in 10.0 mi North 3.5 mph - N/A   Overcast
10:15 PM 20.3 °F 15.4 °F 17.6 °F 89% 30.36 in 10.0 mi North 3.5 mph - N/A   Overcast
10:35 PM 20.8 °F 14.4 °F 18.3 °F 90% 30.36 in 10.0 mi NNE 4.6 mph - N/A   Overcast
10:55 PM 21.0 °F 16.2 °F 18.3 °F 89% 30.36 in 7.0 mi NNE 3.5 mph - N/A   Overcast
11:15 PM 21.2 °F 16.4 °F 18.5 °F 89% 30.36 in 7.0 mi North 3.5 mph - N/A   Overcast
11:35 PM 21.2 °F - 18.5 °F 89% 30.36 in 10.0 mi Calm Calm - N/A   Overcast
11:55 PM 21.6 °F - 18.9 °F 89% 30.36 in 10.0 mi Calm Calm - N/A   Overcast